sensor_id;sensor_type;location;lat;lon;timestamp;temperature;humidity
25248;DHT22;13191;47.472;11.214;2023-09-19T00:01:15;14.70;99.90
25248;DHT22;13191;47.472;11.214;2023-09-19T00:03:45;14.60;99.90
25248;DHT22;13191;47.472;11.214;2023-09-19T00:06:10;14.60;99.90
25248;DHT22;13191;47.472;11.214;2023-09-19T00:08:38;14.60;99.90
25248;DHT22;13191;47.472;11.214;2023-09-19T00:11:04;14.60;99.90
25248;DHT22;13191;47.472;11.214;2023-09-19T00:13:32;14.60;99.90
25248;DHT22;13191;47.472;11.214;2023-09-19T00:15:59;14.60;99.90
25248;DHT22;13191;47.472;11.214;2023-09-19T00:18:25;14.60;99.90
25248;DHT22;13191;47.472;11.214;2023-09-19T00:20:58;14.60;99.90
25248;DHT22;13191;47.472;11.214;2023-09-19T00:23:24;14.60;99.90
25248;DHT22;13191;47.472;11.214;2023-09-19T00:25:50;14.50;99.90
25248;DHT22;13191;47.472;11.214;2023-09-19T00:28:17;14.50;99.90
25248;DHT22;13191;47.472;11.214;2023-09-19T00:30:44;14.50;99.90
25248;DHT22;13191;47.472;11.214;2023-09-19T00:33:10;14.50;99.90
25248;DHT22;13191;47.472;11.214;2023-09-19T00:35:50;14.50;99.90
25248;DHT22;13191;47.472;11.214;2023-09-19T00:38:15;14.50;99.90
25248;DHT22;13191;47.472;11.214;2023-09-19T00:40:46;14.50;99.90
25248;DHT22;13191;47.472;11.214;2023-09-19T00:43:11;14.50;99.90
25248;DHT22;13191;47.472;11.214;2023-09-19T00:45:37;14.50;99.90
25248;DHT22;13191;47.472;11.214;2023-09-19T00:48:08;14.50;99.90
25248;DHT22;13191;47.472;11.214;2023-09-19T00:50:35;14.50;99.90
25248;DHT22;13191;47.472;11.214;2023-09-19T00:53:02;14.50;99.90
25248;DHT22;13191;47.472;11.214;2023-09-19T00:55:34;14.50;99.90
25248;DHT22;13191;47.472;11.214;2023-09-19T00:58:00;14.50;99.90
25248;DHT22;13191;47.472;11.214;2023-09-19T01:00:25;14.50;99.90
25248;DHT22;13191;47.472;11.214;2023-09-19T01:02:52;14.50;99.90
25248;DHT22;13191;47.472;11.214;2023-09-19T01:05:17;14.50;99.90
25248;DHT22;13191;47.472;11.214;2023-09-19T01:07:44;14.50;99.90
25248;DHT22;13191;47.472;11.214;2023-09-19T01:10:12;14.50;99.90
25248;DHT22;13191;47.472;11.214;2023-09-19T01:26:30;14.40;99.90
25248;DHT22;13191;47.472;11.214;2023-09-19T01:29:39;14.40;99.90
25248;DHT22;13191;47.472;11.214;2023-09-19T01:32:06;14.40;99.90
25248;DHT22;13191;47.472;11.214;2023-09-19T01:34:54;14.40;99.90
25248;DHT22;13191;47.472;11.214;2023-09-19T01:37:23;14.40;99.90
25248;DHT22;13191;47.472;11.214;2023-09-19T01:40:12;14.40;99.90
25248;DHT22;13191;47.472;11.214;2023-09-19T01:42:57;14.50;99.90
25248;DHT22;13191;47.472;11.214;2023-09-19T01:48:43;14.40;99.90
25248;DHT22;13191;47.472;11.214;2023-09-19T01:51:15;14.50;99.90
25248;DHT22;13191;47.472;11.214;2023-09-19T01:54:02;14.40;99.90
25248;DHT22;13191;47.472;11.214;2023-09-19T01:56:34;14.50;99.90
25248;DHT22;13191;47.472;11.214;2023-09-19T01:59:10;14.50;99.90
25248;DHT22;13191;47.472;11.214;2023-09-19T02:01:38;14.50;99.90
25248;DHT22;13191;47.472;11.214;2023-09-19T02:04:04;14.50;99.90
25248;DHT22;13191;47.472;11.214;2023-09-19T02:06:30;14.50;99.90
25248;DHT22;13191;47.472;11.214;2023-09-19T02:08:56;14.50;99.90
25248;DHT22;13191;47.472;11.214;2023-09-19T02:11:22;14.50;99.90
25248;DHT22;13191;47.472;11.214;2023-09-19T02:13:48;14.50;99.90
25248;DHT22;13191;47.472;11.214;2023-09-19T02:16:19;14.50;99.90
25248;DHT22;13191;47.472;11.214;2023-09-19T02:18:48;14.60;99.90
25248;DHT22;13191;47.472;11.214;2023-09-19T02:21:15;14.60;99.90
25248;DHT22;13191;47.472;11.214;2023-09-19T02:23:41;14.60;99.90
25248;DHT22;13191;47.472;11.214;2023-09-19T02:26:06;14.60;99.90
25248;DHT22;13191;47.472;11.214;2023-09-19T02:28:32;14.60;99.90
25248;DHT22;13191;47.472;11.214;2023-09-19T02:30:59;14.60;99.90
25248;DHT22;13191;47.472;11.214;2023-09-19T02:33:25;14.60;99.90
25248;DHT22;13191;47.472;11.214;2023-09-19T02:35:55;14.60;99.90
25248;DHT22;13191;47.472;11.214;2023-09-19T02:38:23;14.60;99.90
25248;DHT22;13191;47.472;11.214;2023-09-19T02:40:50;14.60;99.90
25248;DHT22;13191;47.472;11.214;2023-09-19T02:43:16;14.60;99.90
25248;DHT22;13191;47.472;11.214;2023-09-19T02:45:42;14.60;99.90
25248;DHT22;13191;47.472;11.214;2023-09-19T02:48:08;14.70;99.90
25248;DHT22;13191;47.472;11.214;2023-09-19T02:50:34;14.70;99.90
25248;DHT22;13191;47.472;11.214;2023-09-19T02:52:59;14.70;99.90
25248;DHT22;13191;47.472;11.214;2023-09-19T02:55:25;14.70;99.90
25248;DHT22;13191;47.472;11.214;2023-09-19T02:57:53;14.60;99.90
25248;DHT22;13191;47.472;11.214;2023-09-19T03:00:22;14.70;99.90
25248;DHT22;13191;47.472;11.214;2023-09-19T03:02:49;14.70;99.90
25248;DHT22;13191;47.472;11.214;2023-09-19T03:05:14;14.70;99.90
25248;DHT22;13191;47.472;11.214;2023-09-19T03:07:40;14.80;99.90
25248;DHT22;13191;47.472;11.214;2023-09-19T03:10:08;14.80;99.90
25248;DHT22;13191;47.472;11.214;2023-09-19T03:12:34;14.80;99.90
25248;DHT22;13191;47.472;11.214;2023-09-19T03:15:00;14.80;99.90
25248;DHT22;13191;47.472;11.214;2023-09-19T03:17:26;14.80;99.90
25248;DHT22;13191;47.472;11.214;2023-09-19T03:19:52;14.80;99.90
25248;DHT22;13191;47.472;11.214;2023-09-19T03:22:19;14.80;99.90
25248;DHT22;13191;47.472;11.214;2023-09-19T03:24:45;14.80;99.90
25248;DHT22;13191;47.472;11.214;2023-09-19T03:27:11;14.90;99.90
25248;DHT22;13191;47.472;11.214;2023-09-19T03:29:39;14.90;99.90
25248;DHT22;13191;47.472;11.214;2023-09-19T03:32:05;14.90;99.90
25248;DHT22;13191;47.472;11.214;2023-09-19T03:34:31;14.90;99.90
25248;DHT22;13191;47.472;11.214;2023-09-19T03:36:56;14.90;99.90
25248;DHT22;13191;47.472;11.214;2023-09-19T03:39:22;14.90;99.90
25248;DHT22;13191;47.472;11.214;2023-09-19T03:41:48;14.90;99.90
25248;DHT22;13191;47.472;11.214;2023-09-19T03:44:15;14.90;99.90
25248;DHT22;13191;47.472;11.214;2023-09-19T03:46:40;14.90;99.90
25248;DHT22;13191;47.472;11.214;2023-09-19T03:49:07;14.90;99.90
25248;DHT22;13191;47.472;11.214;2023-09-19T03:51:33;14.90;99.90
25248;DHT22;13191;47.472;11.214;2023-09-19T03:53:59;14.90;99.90
25248;DHT22;13191;47.472;11.214;2023-09-19T03:56:25;14.90;99.90
25248;DHT22;13191;47.472;11.214;2023-09-19T03:58:51;15.00;99.90
25248;DHT22;13191;47.472;11.214;2023-09-19T04:01:16;15.00;99.90
25248;DHT22;13191;47.472;11.214;2023-09-19T04:03:43;15.00;99.90
25248;DHT22;13191;47.472;11.214;2023-09-19T04:06:16;14.90;99.90
25248;DHT22;13191;47.472;11.214;2023-09-19T04:08:42;14.90;99.90
25248;DHT22;13191;47.472;11.214;2023-09-19T04:11:09;14.90;99.90
25248;DHT22;13191;47.472;11.214;2023-09-19T04:13:35;14.90;99.90
25248;DHT22;13191;47.472;11.214;2023-09-19T04:16:02;15.00;99.90
25248;DHT22;13191;47.472;11.214;2023-09-19T04:18:29;14.90;99.90
25248;DHT22;13191;47.472;11.214;2023-09-19T04:20:58;14.90;99.90
25248;DHT22;13191;47.472;11.214;2023-09-19T04:23:23;14.90;99.90
25248;DHT22;13191;47.472;11.214;2023-09-19T04:25:49;15.00;99.90
25248;DHT22;13191;47.472;11.214;2023-09-19T04:28:15;15.00;99.90
25248;DHT22;13191;47.472;11.214;2023-09-19T04:30:41;15.00;99.90
25248;DHT22;13191;47.472;11.214;2023-09-19T04:33:07;14.90;99.90
25248;DHT22;13191;47.472;11.214;2023-09-19T04:35:33;14.90;99.90
25248;DHT22;13191;47.472;11.214;2023-09-19T04:37:59;15.00;99.90
25248;DHT22;13191;47.472;11.214;2023-09-19T04:40:25;15.00;99.90
25248;DHT22;13191;47.472;11.214;2023-09-19T04:42:56;15.00;99.90
25248;DHT22;13191;47.472;11.214;2023-09-19T04:45:23;15.00;99.90
25248;DHT22;13191;47.472;11.214;2023-09-19T04:47:48;15.00;99.90
25248;DHT22;13191;47.472;11.214;2023-09-19T04:50:14;15.00;99.90
25248;DHT22;13191;47.472;11.214;2023-09-19T04:52:41;15.00;99.90
25248;DHT22;13191;47.472;11.214;2023-09-19T04:55:15;15.00;99.90
25248;DHT22;13191;47.472;11.214;2023-09-19T04:57:48;15.00;99.90
25248;DHT22;13191;47.472;11.214;2023-09-19T05:00:15;15.00;99.90
25248;DHT22;13191;47.472;11.214;2023-09-19T05:02:42;15.00;99.90
25248;DHT22;13191;47.472;11.214;2023-09-19T05:05:08;15.00;99.90
25248;DHT22;13191;47.472;11.214;2023-09-19T05:07:41;15.00;99.90
25248;DHT22;13191;47.472;11.214;2023-09-19T05:10:08;15.10;99.90
25248;DHT22;13191;47.472;11.214;2023-09-19T05:12:34;15.10;99.90
25248;DHT22;13191;47.472;11.214;2023-09-19T05:15:09;15.00;99.90
25248;DHT22;13191;47.472;11.214;2023-09-19T05:17:35;15.10;99.90
25248;DHT22;13191;47.472;11.214;2023-09-19T05:20:02;15.00;99.90
25248;DHT22;13191;47.472;11.214;2023-09-19T05:22:31;15.10;99.90
25248;DHT22;13191;47.472;11.214;2023-09-19T05:24:58;15.10;99.90
25248;DHT22;13191;47.472;11.214;2023-09-19T05:27:24;15.00;99.90
25248;DHT22;13191;47.472;11.214;2023-09-19T05:29:49;15.00;99.90
25248;DHT22;13191;47.472;11.214;2023-09-19T05:32:18;15.00;99.90
25248;DHT22;13191;47.472;11.214;2023-09-19T05:34:45;15.00;99.90
25248;DHT22;13191;47.472;11.214;2023-09-19T05:37:11;15.00;99.90
25248;DHT22;13191;47.472;11.214;2023-09-19T05:39:36;15.00;99.90
25248;DHT22;13191;47.472;11.214;2023-09-19T05:42:03;15.00;99.90
25248;DHT22;13191;47.472;11.214;2023-09-19T05:44:28;15.00;99.90
25248;DHT22;13191;47.472;11.214;2023-09-19T05:46:54;15.00;99.90
25248;DHT22;13191;47.472;11.214;2023-09-19T05:49:22;15.00;99.90
25248;DHT22;13191;47.472;11.214;2023-09-19T05:51:47;15.10;99.90
25248;DHT22;13191;47.472;11.214;2023-09-19T05:54:13;15.00;99.90
25248;DHT22;13191;47.472;11.214;2023-09-19T05:56:39;15.00;99.90
25248;DHT22;13191;47.472;11.214;2023-09-19T05:59:04;15.10;99.90
25248;DHT22;13191;47.472;11.214;2023-09-19T06:01:31;15.00;99.90
25248;DHT22;13191;47.472;11.214;2023-09-19T06:03:58;15.00;99.90
25248;DHT22;13191;47.472;11.214;2023-09-19T06:06:25;15.00;99.90
25248;DHT22;13191;47.472;11.214;2023-09-19T06:08:51;15.10;99.90
25248;DHT22;13191;47.472;11.214;2023-09-19T06:11:17;15.10;99.90
25248;DHT22;13191;47.472;11.214;2023-09-19T06:13:45;15.10;99.90
25248;DHT22;13191;47.472;11.214;2023-09-19T06:16:12;15.10;99.90
25248;DHT22;13191;47.472;11.214;2023-09-19T06:18:38;15.10;99.90
25248;DHT22;13191;47.472;11.214;2023-09-19T06:21:04;15.10;99.90
25248;DHT22;13191;47.472;11.214;2023-09-19T06:23:33;15.10;99.90
25248;DHT22;13191;47.472;11.214;2023-09-19T06:25:59;15.10;99.90
25248;DHT22;13191;47.472;11.214;2023-09-19T06:28:25;15.10;99.90
25248;DHT22;13191;47.472;11.214;2023-09-19T06:30:56;15.10;99.90
25248;DHT22;13191;47.472;11.214;2023-09-19T06:33:22;15.20;99.90
25248;DHT22;13191;47.472;11.214;2023-09-19T06:35:48;15.20;99.90
25248;DHT22;13191;47.472;11.214;2023-09-19T06:38:14;15.20;99.90
25248;DHT22;13191;47.472;11.214;2023-09-19T06:40:41;15.30;99.90
25248;DHT22;13191;47.472;11.214;2023-09-19T06:43:10;15.30;99.90
25248;DHT22;13191;47.472;11.214;2023-09-19T06:45:36;15.30;99.90
25248;DHT22;13191;47.472;11.214;2023-09-19T06:48:01;15.30;99.90
25248;DHT22;13191;47.472;11.214;2023-09-19T06:50:28;15.30;99.90
25248;DHT22;13191;47.472;11.214;2023-09-19T06:52:57;15.30;99.90
25248;DHT22;13191;47.472;11.214;2023-09-19T06:55:25;15.30;99.90
25248;DHT22;13191;47.472;11.214;2023-09-19T06:57:53;15.30;99.90
25248;DHT22;13191;47.472;11.214;2023-09-19T07:00:19;15.40;99.90
25248;DHT22;13191;47.472;11.214;2023-09-19T07:02:59;15.40;99.90
25248;DHT22;13191;47.472;11.214;2023-09-19T07:05:33;15.40;99.90
25248;DHT22;13191;47.472;11.214;2023-09-19T07:08:01;15.40;99.90
25248;DHT22;13191;47.472;11.214;2023-09-19T07:10:27;15.40;99.90
25248;DHT22;13191;47.472;11.214;2023-09-19T07:15:23;15.40;99.90
25248;DHT22;13191;47.472;11.214;2023-09-19T07:17:56;15.50;99.90
25248;DHT22;13191;47.472;11.214;2023-09-19T07:20:23;15.50;99.90
25248;DHT22;13191;47.472;11.214;2023-09-19T07:22:54;15.50;99.90
25248;DHT22;13191;47.472;11.214;2023-09-19T07:25:25;15.50;99.90
25248;DHT22;13191;47.472;11.214;2023-09-19T07:27:51;15.50;99.90
25248;DHT22;13191;47.472;11.214;2023-09-19T07:30:16;15.60;99.90
25248;DHT22;13191;47.472;11.214;2023-09-19T07:32:42;15.60;99.90
25248;DHT22;13191;47.472;11.214;2023-09-19T07:35:08;15.70;99.90
25248;DHT22;13191;47.472;11.214;2023-09-19T07:37:34;15.70;99.90
25248;DHT22;13191;47.472;11.214;2023-09-19T07:40:04;15.70;99.90
25248;DHT22;13191;47.472;11.214;2023-09-19T07:42:35;15.70;99.90
25248;DHT22;13191;47.472;11.214;2023-09-19T07:45:02;15.80;99.90
25248;DHT22;13191;47.472;11.214;2023-09-19T07:47:28;15.80;99.90
25248;DHT22;13191;47.472;11.214;2023-09-19T07:49:55;15.90;99.90
25248;DHT22;13191;47.472;11.214;2023-09-19T07:52:21;15.90;99.90
25248;DHT22;13191;47.472;11.214;2023-09-19T07:54:48;15.90;99.90
25248;DHT22;13191;47.472;11.214;2023-09-19T07:57:14;15.90;99.90
25248;DHT22;13191;47.472;11.214;2023-09-19T07:59:40;15.90;99.90
25248;DHT22;13191;47.472;11.214;2023-09-19T08:02:07;15.90;99.90
25248;DHT22;13191;47.472;11.214;2023-09-19T08:04:35;15.90;99.90
25248;DHT22;13191;47.472;11.214;2023-09-19T08:07:00;16.00;99.90
25248;DHT22;13191;47.472;11.214;2023-09-19T08:09:29;16.00;99.90
25248;DHT22;13191;47.472;11.214;2023-09-19T08:11:58;16.00;99.90
25248;DHT22;13191;47.472;11.214;2023-09-19T08:14:29;16.10;99.90
25248;DHT22;13191;47.472;11.214;2023-09-19T08:16:58;16.10;99.90
25248;DHT22;13191;47.472;11.214;2023-09-19T08:19:24;16.20;99.90
25248;DHT22;13191;47.472;11.214;2023-09-19T08:21:55;16.20;99.90
25248;DHT22;13191;47.472;11.214;2023-09-19T08:24:21;16.20;99.90
25248;DHT22;13191;47.472;11.214;2023-09-19T08:26:46;16.20;99.90
25248;DHT22;13191;47.472;11.214;2023-09-19T08:29:12;16.30;99.90
25248;DHT22;13191;47.472;11.214;2023-09-19T08:31:38;16.30;99.90
25248;DHT22;13191;47.472;11.214;2023-09-19T08:34:03;16.40;99.90
25248;DHT22;13191;47.472;11.214;2023-09-19T08:36:29;16.40;99.90
25248;DHT22;13191;47.472;11.214;2023-09-19T08:38:56;16.50;99.90
25248;DHT22;13191;47.472;11.214;2023-09-19T08:41:21;16.50;99.90
25248;DHT22;13191;47.472;11.214;2023-09-19T08:43:47;16.60;99.90
25248;DHT22;13191;47.472;11.214;2023-09-19T08:46:16;16.60;99.90
25248;DHT22;13191;47.472;11.214;2023-09-19T08:48:54;16.70;99.90
25248;DHT22;13191;47.472;11.214;2023-09-19T08:51:43;16.70;99.90
25248;DHT22;13191;47.472;11.214;2023-09-19T08:54:33;16.70;99.90
25248;DHT22;13191;47.472;11.214;2023-09-19T08:57:04;16.70;99.90
25248;DHT22;13191;47.472;11.214;2023-09-19T08:59:33;16.70;99.90
25248;DHT22;13191;47.472;11.214;2023-09-19T09:02:00;16.70;99.90
25248;DHT22;13191;47.472;11.214;2023-09-19T09:04:27;16.70;99.90
25248;DHT22;13191;47.472;11.214;2023-09-19T09:06:53;16.70;99.90
25248;DHT22;13191;47.472;11.214;2023-09-19T09:09:20;16.80;99.90
25248;DHT22;13191;47.472;11.214;2023-09-19T09:11:48;16.80;99.90
25248;DHT22;13191;47.472;11.214;2023-09-19T09:14:16;16.90;99.90
25248;DHT22;13191;47.472;11.214;2023-09-19T09:16:42;16.90;99.90
25248;DHT22;13191;47.472;11.214;2023-09-19T09:19:08;16.90;99.90
25248;DHT22;13191;47.472;11.214;2023-09-19T09:21:33;17.00;99.90
25248;DHT22;13191;47.472;11.214;2023-09-19T09:24:28;17.00;99.90
25248;DHT22;13191;47.472;11.214;2023-09-19T09:26:55;17.00;99.90
25248;DHT22;13191;47.472;11.214;2023-09-19T09:29:41;17.00;99.90
25248;DHT22;13191;47.472;11.214;2023-09-19T09:32:17;17.00;99.90
25248;DHT22;13191;47.472;11.214;2023-09-19T09:34:50;17.00;99.90
25248;DHT22;13191;47.472;11.214;2023-09-19T09:37:17;17.00;99.90
25248;DHT22;13191;47.472;11.214;2023-09-19T09:39:55;17.00;99.90
25248;DHT22;13191;47.472;11.214;2023-09-19T09:42:34;17.10;99.90
25248;DHT22;13191;47.472;11.214;2023-09-19T09:45:20;17.10;99.90
25248;DHT22;13191;47.472;11.214;2023-09-19T09:47:54;17.10;99.90
25248;DHT22;13191;47.472;11.214;2023-09-19T09:50:30;17.10;99.90
25248;DHT22;13191;47.472;11.214;2023-09-19T09:53:27;17.10;99.90
25248;DHT22;13191;47.472;11.214;2023-09-19T09:56:05;17.10;99.90
25248;DHT22;13191;47.472;11.214;2023-09-19T09:58:36;17.10;99.90
25248;DHT22;13191;47.472;11.214;2023-09-19T10:01:04;17.20;99.90
25248;DHT22;13191;47.472;11.214;2023-09-19T10:03:40;17.20;99.90
25248;DHT22;13191;47.472;11.214;2023-09-19T10:06:10;17.20;99.90
25248;DHT22;13191;47.472;11.214;2023-09-19T10:09:06;17.20;99.90
25248;DHT22;13191;47.472;11.214;2023-09-19T10:12:06;17.30;99.90
25248;DHT22;13191;47.472;11.214;2023-09-19T10:14:37;17.30;99.90
25248;DHT22;13191;47.472;11.214;2023-09-19T10:17:05;17.30;99.90
25248;DHT22;13191;47.472;11.214;2023-09-19T10:19:43;17.30;99.90
25248;DHT22;13191;47.472;11.214;2023-09-19T10:22:12;17.30;99.90
25248;DHT22;13191;47.472;11.214;2023-09-19T10:24:40;17.30;99.90
25248;DHT22;13191;47.472;11.214;2023-09-19T10:27:07;17.30;99.90
25248;DHT22;13191;47.472;11.214;2023-09-19T10:29:39;17.30;99.90
25248;DHT22;13191;47.472;11.214;2023-09-19T10:32:06;17.40;99.90
25248;DHT22;13191;47.472;11.214;2023-09-19T10:34:38;17.40;99.90
25248;DHT22;13191;47.472;11.214;2023-09-19T10:37:07;17.30;99.90
25248;DHT22;13191;47.472;11.214;2023-09-19T10:39:37;17.40;99.90
25248;DHT22;13191;47.472;11.214;2023-09-19T10:42:06;17.40;99.90
25248;DHT22;13191;47.472;11.214;2023-09-19T10:44:37;17.40;99.90
25248;DHT22;13191;47.472;11.214;2023-09-19T10:47:08;17.50;99.90
25248;DHT22;13191;47.472;11.214;2023-09-19T10:49:34;17.50;99.90
25248;DHT22;13191;47.472;11.214;2023-09-19T10:52:01;17.50;99.90
25248;DHT22;13191;47.472;11.214;2023-09-19T10:54:31;17.60;99.90
25248;DHT22;13191;47.472;11.214;2023-09-19T10:56:59;17.60;99.90
25248;DHT22;13191;47.472;11.214;2023-09-19T10:59:26;17.60;99.90
25248;DHT22;13191;47.472;11.214;2023-09-19T11:02:00;17.70;99.90
25248;DHT22;13191;47.472;11.214;2023-09-19T11:04:31;17.70;99.90
25248;DHT22;13191;47.472;11.214;2023-09-19T11:07:09;17.70;99.90
25248;DHT22;13191;47.472;11.214;2023-09-19T11:09:53;17.80;99.90
25248;DHT22;13191;47.472;11.214;2023-09-19T11:15:00;17.90;99.90
25248;DHT22;13191;47.472;11.214;2023-09-19T11:17:31;17.80;99.90
25248;DHT22;13191;47.472;11.214;2023-09-19T11:30:46;18.30;99.90
25248;DHT22;13191;47.472;11.214;2023-09-19T11:36:07;18.30;99.90
25248;DHT22;13191;47.472;11.214;2023-09-19T11:43:53;18.50;99.90
25248;DHT22;13191;47.472;11.214;2023-09-19T11:46:24;18.40;99.90
25248;DHT22;13191;47.472;11.214;2023-09-19T11:48:51;18.40;99.90
25248;DHT22;13191;47.472;11.214;2023-09-19T11:51:20;18.30;99.90
25248;DHT22;13191;47.472;11.214;2023-09-19T11:54:01;18.40;99.90
25248;DHT22;13191;47.472;11.214;2023-09-19T11:56:28;18.40;99.90
25248;DHT22;13191;47.472;11.214;2023-09-19T11:58:57;18.50;99.90
25248;DHT22;13191;47.472;11.214;2023-09-19T12:01:33;18.50;99.90
25248;DHT22;13191;47.472;11.214;2023-09-19T12:04:01;18.50;99.90
25248;DHT22;13191;47.472;11.214;2023-09-19T12:06:30;18.50;99.90
25248;DHT22;13191;47.472;11.214;2023-09-19T12:08:58;18.60;99.90
25248;DHT22;13191;47.472;11.214;2023-09-19T12:11:29;18.70;99.90
25248;DHT22;13191;47.472;11.214;2023-09-19T12:13:59;18.80;99.90
25248;DHT22;13191;47.472;11.214;2023-09-19T12:16:26;18.80;99.90
25248;DHT22;13191;47.472;11.214;2023-09-19T12:18:56;18.80;99.90
25248;DHT22;13191;47.472;11.214;2023-09-19T12:21:29;18.90;99.90
25248;DHT22;13191;47.472;11.214;2023-09-19T12:26:30;19.00;99.90
25248;DHT22;13191;47.472;11.214;2023-09-19T12:29:02;19.10;99.90
25248;DHT22;13191;47.472;11.214;2023-09-19T12:31:30;19.20;99.90
25248;DHT22;13191;47.472;11.214;2023-09-19T12:34:01;19.10;99.90
25248;DHT22;13191;47.472;11.214;2023-09-19T12:36:27;19.20;99.90
25248;DHT22;13191;47.472;11.214;2023-09-19T12:38:56;19.20;99.90
25248;DHT22;13191;47.472;11.214;2023-09-19T12:41:24;19.30;99.90
25248;DHT22;13191;47.472;11.214;2023-09-19T12:43:52;19.20;99.90
25248;DHT22;13191;47.472;11.214;2023-09-19T12:46:22;19.30;99.90
25248;DHT22;13191;47.472;11.214;2023-09-19T12:49:19;19.30;99.90
25248;DHT22;13191;47.472;11.214;2023-09-19T12:51:49;19.40;99.90
25248;DHT22;13191;47.472;11.214;2023-09-19T12:54:15;19.40;99.90
25248;DHT22;13191;47.472;11.214;2023-09-19T12:56:43;19.40;99.90
25248;DHT22;13191;47.472;11.214;2023-09-19T12:59:15;19.50;99.90
25248;DHT22;13191;47.472;11.214;2023-09-19T13:01:42;19.50;99.90
25248;DHT22;13191;47.472;11.214;2023-09-19T13:04:22;19.50;99.90
25248;DHT22;13191;47.472;11.214;2023-09-19T13:06:55;19.50;99.90
25248;DHT22;13191;47.472;11.214;2023-09-19T13:09:26;19.60;99.90
25248;DHT22;13191;47.472;11.214;2023-09-19T13:12:00;19.60;99.90
25248;DHT22;13191;47.472;11.214;2023-09-19T13:14:29;19.60;99.90
25248;DHT22;13191;47.472;11.214;2023-09-19T13:16:57;19.70;99.90
25248;DHT22;13191;47.472;11.214;2023-09-19T13:22:02;19.70;99.90
25248;DHT22;13191;47.472;11.214;2023-09-19T13:24:28;19.80;99.90
25248;DHT22;13191;47.472;11.214;2023-09-19T13:26:56;19.90;99.90
25248;DHT22;13191;47.472;11.214;2023-09-19T13:29:22;19.90;99.90
25248;DHT22;13191;47.472;11.214;2023-09-19T13:31:52;20.00;99.90
25248;DHT22;13191;47.472;11.214;2023-09-19T13:34:19;20.10;99.90
25248;DHT22;13191;47.472;11.214;2023-09-19T13:36:45;20.10;99.90
25248;DHT22;13191;47.472;11.214;2023-09-19T13:39:16;20.10;99.90
25248;DHT22;13191;47.472;11.214;2023-09-19T13:41:44;20.20;99.90
25248;DHT22;13191;47.472;11.214;2023-09-19T13:44:12;20.30;99.90
25248;DHT22;13191;47.472;11.214;2023-09-19T13:46:37;20.40;99.90
25248;DHT22;13191;47.472;11.214;2023-09-19T13:49:03;20.40;99.90
25248;DHT22;13191;47.472;11.214;2023-09-19T13:51:31;20.40;99.90
25248;DHT22;13191;47.472;11.214;2023-09-19T13:53:57;20.40;99.90
25248;DHT22;13191;47.472;11.214;2023-09-19T13:56:23;20.40;99.90
25248;DHT22;13191;47.472;11.214;2023-09-19T13:58:50;20.50;99.90
25248;DHT22;13191;47.472;11.214;2023-09-19T14:01:15;20.50;99.90
25248;DHT22;13191;47.472;11.214;2023-09-19T14:03:41;20.60;99.90
25248;DHT22;13191;47.472;11.214;2023-09-19T14:06:13;20.70;99.90
25248;DHT22;13191;47.472;11.214;2023-09-19T14:08:38;20.70;99.90
25248;DHT22;13191;47.472;11.214;2023-09-19T14:11:08;20.80;99.90
25248;DHT22;13191;47.472;11.214;2023-09-19T14:13:34;20.90;99.90
25248;DHT22;13191;47.472;11.214;2023-09-19T14:16:06;20.90;99.90
25248;DHT22;13191;47.472;11.214;2023-09-19T14:18:34;20.90;99.90
25248;DHT22;13191;47.472;11.214;2023-09-19T14:21:06;20.90;99.90
25248;DHT22;13191;47.472;11.214;2023-09-19T14:23:40;21.00;99.90
25248;DHT22;13191;47.472;11.214;2023-09-19T14:26:07;21.10;99.90
25248;DHT22;13191;47.472;11.214;2023-09-19T14:28:33;21.10;99.90
25248;DHT22;13191;47.472;11.214;2023-09-19T14:31:08;21.20;99.90
25248;DHT22;13191;47.472;11.214;2023-09-19T14:33:34;21.40;99.90
25248;DHT22;13191;47.472;11.214;2023-09-19T14:36:03;21.50;99.90
25248;DHT22;13191;47.472;11.214;2023-09-19T14:38:32;21.70;99.90
25248;DHT22;13191;47.472;11.214;2023-09-19T14:41:03;22.10;99.90
25248;DHT22;13191;47.472;11.214;2023-09-19T14:43:29;22.40;99.90
25248;DHT22;13191;47.472;11.214;2023-09-19T14:46:08;22.70;99.90
25248;DHT22;13191;47.472;11.214;2023-09-19T14:48:35;23.10;99.90
25248;DHT22;13191;47.472;11.214;2023-09-19T14:51:05;23.50;99.90
25248;DHT22;13191;47.472;11.214;2023-09-19T14:53:31;23.70;99.90
25248;DHT22;13191;47.472;11.214;2023-09-19T14:56:03;24.10;99.90
25248;DHT22;13191;47.472;11.214;2023-09-19T14:58:30;24.30;99.90
25248;DHT22;13191;47.472;11.214;2023-09-19T15:01:06;24.60;99.90
25248;DHT22;13191;47.472;11.214;2023-09-19T15:03:32;24.80;99.90
25248;DHT22;13191;47.472;11.214;2023-09-19T15:06:00;25.10;99.90
25248;DHT22;13191;47.472;11.214;2023-09-19T15:08:25;25.40;99.90
25248;DHT22;13191;47.472;11.214;2023-09-19T15:10:51;25.70;99.90
25248;DHT22;13191;47.472;11.214;2023-09-19T15:13:18;25.90;99.90
25248;DHT22;13191;47.472;11.214;2023-09-19T15:15:44;26.00;99.90
25248;DHT22;13191;47.472;11.214;2023-09-19T15:18:12;26.20;99.90
25248;DHT22;13191;47.472;11.214;2023-09-19T15:20:43;26.30;99.90
25248;DHT22;13191;47.472;11.214;2023-09-19T15:23:09;26.30;99.90
25248;DHT22;13191;47.472;11.214;2023-09-19T15:25:35;26.40;99.90
25248;DHT22;13191;47.472;11.214;2023-09-19T15:28:00;26.30;99.90
25248;DHT22;13191;47.472;11.214;2023-09-19T15:30:42;26.30;99.90
25248;DHT22;13191;47.472;11.214;2023-09-19T15:33:08;26.30;99.90
25248;DHT22;13191;47.472;11.214;2023-09-19T15:35:33;26.40;99.90
25248;DHT22;13191;47.472;11.214;2023-09-19T15:38:03;26.50;99.90
25248;DHT22;13191;47.472;11.214;2023-09-19T15:40:28;26.60;99.90
25248;DHT22;13191;47.472;11.214;2023-09-19T15:42:54;26.70;99.90
25248;DHT22;13191;47.472;11.214;2023-09-19T15:45:21;26.80;99.90
25248;DHT22;13191;47.472;11.214;2023-09-19T15:47:47;26.90;99.90
25248;DHT22;13191;47.472;11.214;2023-09-19T15:50:12;27.10;99.90
25248;DHT22;13191;47.472;11.214;2023-09-19T15:52:44;27.10;99.90
25248;DHT22;13191;47.472;11.214;2023-09-19T15:55:11;27.10;99.90
25248;DHT22;13191;47.472;11.214;2023-09-19T15:57:37;27.20;99.90
25248;DHT22;13191;47.472;11.214;2023-09-19T16:00:04;27.20;99.90
25248;DHT22;13191;47.472;11.214;2023-09-19T16:02:35;27.10;99.90
25248;DHT22;13191;47.472;11.214;2023-09-19T16:05:01;27.10;99.90
25248;DHT22;13191;47.472;11.214;2023-09-19T16:07:29;27.00;99.90
25248;DHT22;13191;47.472;11.214;2023-09-19T16:09:55;26.90;99.90
25248;DHT22;13191;47.472;11.214;2023-09-19T16:12:20;26.90;99.90